Station History

Weather Underground - logo

Station Historical Data
Daily Summary for December 21, 2017 Units:  English    Metric   Both
« Previous Day
Next Day »
Daily Weekly Monthly Yearly Custom
  High: Low: Average:
Temperature: 54.3 °F 32.1 °F 41 °F
Dew Point: 41.4 °F 30.6 °F 35.5 °F
Humidity: 97 % 50 % 83 %
Wind Speed: 10.4 mph 0.0 mph 1 mph
Wind Gust: 10.4 mph - -
Wind:- - SSE
Pressure: 30.34 in 30.21 in -
Precipitation: 0.01 in    
Historical Graphs
 
 
Tabular Data for December 21, 2017
Time Temperature Dew Point Pressure Wind Wind Speed Wind Gust Humidity Rainfall Rate (Hourly)
00:04 36.6 °F 35.3 °F 30.21 in Calm     95 % 0.00 in
00:07 36.7 °F 35.4 °F 30.21 in Calm     95 % 0.00 in
00:10 36.9 °F 35.6 °F 30.22 in Calm     95 % 0.00 in
00:13 36.9 °F 35.6 °F 30.22 in Calm     95 % 0.00 in
00:18 36.9 °F 35.6 °F 30.21 in NNE 1.2 mph   95 % 0.00 in
00:23 36.9 °F 35.6 °F 30.22 in NNE 1.0 mph 1.0 mph 95 % 0.00 in
00:28 37.0 °F 35.7 °F 30.21 in NNE 1.2 mph 1.2 mph 95 % 0.00 in
00:30 36.9 °F 35.6 °F 30.22 in Calm     95 % 0.00 in
00:35 36.8 °F 35.5 °F 30.22 in Calm     95 % 0.00 in
00:40 36.7 °F 35.4 °F 30.22 in Calm     95 % 0.00 in
00:44 36.6 °F 35.3 °F 30.22 in Calm     95 % 0.00 in
00:49 36.5 °F 35.2 °F 30.22 in Calm     95 % 0.00 in
00:50 36.5 °F 35.2 °F 30.22 in Calm     95 % 0.00 in
00:55 36.6 °F 35.3 °F 30.21 in Calm     95 % 0.00 in
01:00 36.6 °F 35.3 °F 30.21 in Calm     95 % 0.00 in
01:04 36.7 °F 35.7 °F 30.21 in Calm     96 % 0.00 in
01:09 36.6 °F 35.6 °F 30.22 in Calm     96 % 0.00 in
01:13 36.6 °F 35.3 °F 30.21 in Calm     95 % 0.00 in
01:14 36.6 °F 35.6 °F 30.21 in Calm     96 % 0.00 in
01:19 36.5 °F 35.5 °F 30.22 in NNE 1.2 mph 1.2 mph 96 % 0.00 in
01:20 36.6 °F 35.6 °F 30.22 in Calm     96 % 0.00 in
01:25 36.5 °F 35.2 °F 30.22 in Calm     95 % 0.00 in
01:29 36.4 °F 35.1 °F 30.22 in Calm     95 % 0.00 in
01:31 36.4 °F 35.1 °F 30.22 in Calm     95 % 0.00 in
01:36 36.3 °F 35.0 °F 30.22 in Calm     95 % 0.00 in
01:37 36.3 °F 35.0 °F 30.22 in NNE 1.2 mph   95 % 0.00 in
01:41 36.3 °F 35.0 °F 30.21 in Calm     95 % 0.00 in
01:43 36.3 °F 35.0 °F 30.22 in Calm     95 % 0.00 in
01:48 36.3 °F 35.0 °F 30.22 in Calm     95 % 0.00 in
01:53 36.3 °F 35.0 °F 30.22 in Calm     95 % 0.00 in
01:58 36.1 °F 34.8 °F 30.22 in Calm     95 % 0.00 in
02:02 36.0 °F 34.7 °F 30.22 in NNE 1.2 mph   95 % 0.00 in
02:07 35.9 °F 34.6 °F 30.22 in Calm     95 % 0.00 in
02:11 35.9 °F 34.6 °F 30.22 in Calm     95 % 0.01 in
02:13 35.9 °F 34.6 °F 30.22 in Calm     95 % 0.01 in
02:18 36.0 °F 34.7 °F 30.22 in NNE 1.2 mph   95 % 0.01 in
02:19 36.0 °F 34.7 °F 30.22 in Calm     95 % 0.01 in
02:24 35.9 °F 34.6 °F 30.22 in Calm     95 % 0.01 in
02:25 35.9 °F 34.6 °F 30.22 in Calm     95 % 0.01 in
02:30 35.9 °F 34.6 °F 30.22 in Calm     95 % 0.01 in
02:32 35.8 °F 34.5 °F 30.22 in Calm     95 % 0.01 in
02:35 35.7 °F 34.4 °F 30.22 in Calm     95 % 0.01 in
02:40 35.6 °F 34.3 °F 30.22 in Calm     95 % 0.01 in
02:42 35.7 °F 34.4 °F 30.22 in Calm     95 % 0.01 in
02:44 35.7 °F 34.4 °F 30.22 in Calm   0.1 mph 95 % 0.01 in
02:49 35.7 °F 34.4 °F 30.22 in Calm     95 % 0.01 in
02:52 35.6 °F 34.3 °F 30.22 in Calm     95 % 0.01 in
02:57 35.6 °F 34.3 °F 30.22 in Calm     95 % 0.01 in
02:59 35.6 °F 34.3 °F 30.22 in Calm     95 % 0.01 in
03:04 35.6 °F 34.3 °F 30.22 in Calm     95 % 0.01 in
03:09 35.6 °F 34.3 °F 30.22 in Calm     95 % 0.00 in
03:10 35.6 °F 34.3 °F 30.22 in Calm     95 % 0.00 in
03:15 35.6 °F 34.3 °F 30.22 in Calm     95 % 0.00 in
03:20 35.6 °F 34.3 °F 30.23 in Calm     95 % 0.00 in
03:21 35.6 °F 34.3 °F 30.23 in Calm     95 % 0.00 in
03:26 35.5 °F 34.2 °F 30.23 in Calm     95 % 0.00 in
03:27 35.4 °F 34.1 °F 30.23 in Calm     95 % 0.00 in
03:32 35.3 °F 34.0 °F 30.23 in Calm     95 % 0.00 in
03:33 35.2 °F 33.9 °F 30.23 in Calm     95 % 0.00 in
03:38 35.2 °F 33.9 °F 30.22 in Calm     95 % 0.00 in
03:39 35.2 °F 33.9 °F 30.22 in Calm     95 % 0.00 in
03:43 35.1 °F 33.8 °F 30.22 in Calm     95 % 0.00 in
03:44 35.1 °F 33.8 °F 30.22 in Calm     95 % 0.00 in
03:47 35.0 °F 33.7 °F 30.22 in Calm     95 % 0.00 in
03:49 34.9 °F 33.6 °F 30.22 in Calm     95 % 0.00 in
03:50 34.9 °F 33.6 °F 30.22 in Calm     95 % 0.00 in
03:55 34.8 °F 33.5 °F 30.22 in Calm     95 % 0.00 in
03:59 34.9 °F 33.6 °F 30.22 in Calm     95 % 0.00 in
04:01 34.9 °F 33.6 °F 30.22 in Calm     95 % 0.00 in
04:05 34.7 °F 33.4 °F 30.22 in Calm     95 % 0.00 in
04:10 34.6 °F 33.3 °F 30.22 in Calm     95 % 0.00 in
04:11 34.6 °F 33.3 °F 30.22 in Calm     95 % 0.00 in
04:16 34.2 °F 32.9 °F 30.22 in Calm     95 % 0.00 in
04:18 34.0 °F 32.7 °F 30.22 in Calm     95 % 0.00 in
04:23 33.7 °F 32.4 °F 30.22 in Calm     95 % 0.00 in
04:27 33.9 °F 32.6 °F 30.22 in Calm     95 % 0.00 in
04:31 33.9 °F 32.6 °F 30.21 in Calm     95 % 0.00 in
04:33 33.9 °F 32.6 °F 30.21 in Calm     95 % 0.00 in
04:36 33.9 °F 32.6 °F 30.22 in Calm     95 % 0.00 in
04:41 33.7 °F 32.4 °F 30.21 in Calm     95 % 0.00 in
04:42 33.7 °F 32.4 °F 30.21 in Calm     95 % 0.00 in
04:47 33.7 °F 32.4 °F 30.21 in Calm     95 % 0.00 in
04:48 33.6 °F 32.3 °F 30.21 in Calm     95 % 0.00 in
04:49 33.6 °F 32.3 °F 30.21 in Calm     95 % 0.00 in
04:53 33.6 °F 32.3 °F 30.22 in Calm     95 % 0.00 in
04:58 33.7 °F 32.4 °F 30.22 in Calm     95 % 0.00 in
04:59 33.7 °F 32.4 °F 30.22 in Calm     95 % 0.00 in
05:04 33.7 °F 32.4 °F 30.22 in Calm     95 % 0.00 in
05:07 33.7 °F 32.4 °F 30.22 in Calm     95 % 0.00 in
05:12 33.7 °F 32.7 °F 30.22 in Calm     96 % 0.00 in
05:16 33.8 °F 32.8 °F 30.22 in Calm     96 % 0.00 in
05:21 33.7 °F 32.7 °F 30.22 in Calm     96 % 0.00 in
05:23 33.7 °F 32.7 °F 30.22 in NNE 1.2 mph   96 % 0.00 in
05:28 33.7 °F 32.7 °F 30.23 in Calm     96 % 0.00 in
05:32 33.7 °F 32.7 °F 30.23 in Calm     96 % 0.00 in
05:34 33.8 °F 32.8 °F 30.23 in Calm     96 % 0.00 in
05:38 33.8 °F 32.8 °F 30.23 in Calm     96 % 0.00 in
05:43 33.8 °F 32.8 °F 30.23 in Calm     96 % 0.00 in
05:45 33.8 °F 32.8 °F 30.23 in Calm     96 % 0.00 in
05:48 33.7 °F 32.7 °F 30.23 in Calm     96 % 0.00 in
05:53 33.7 °F 32.7 °F 30.23 in Calm     96 % 0.00 in
05:54 33.7 °F 32.7 °F 30.23 in Calm     96 % 0.00 in
05:58 33.8 °F 32.8 °F 30.24 in Calm     96 % 0.00 in
05:59 33.8 °F 32.8 °F 30.24 in Calm     96 % 0.00 in
06:04 33.5 °F 32.5 °F 30.24 in Calm     96 % 0.00 in
06:05 33.5 °F 32.5 °F 30.24 in Calm     96 % 0.00 in
06:09 33.2 °F 32.2 °F 30.24 in Calm     96 % 0.00 in
06:11 33.1 °F 32.1 °F 30.24 in Calm     96 % 0.00 in
06:16 33.1 °F 32.1 °F 30.24 in Calm     96 % 0.00 in
06:17 33.2 °F 32.2 °F 30.25 in Calm     96 % 0.00 in
06:22 33.1 °F 32.1 °F 30.25 in Calm     96 % 0.00 in
06:25 33.1 °F 32.1 °F 30.25 in Calm     96 % 0.00 in
06:30 33.0 °F 32.0 °F 30.25 in Calm     96 % 0.00 in
06:35 32.8 °F 31.8 °F 30.25 in Calm     96 % 0.00 in
06:36 32.8 °F 31.8 °F 30.25 in Calm     96 % 0.00 in
06:41 32.7 °F 31.7 °F 30.25 in Calm   0.2 mph 96 % 0.00 in
06:43 32.8 °F 31.8 °F 30.25 in Calm     96 % 0.00 in
06:48 32.7 °F 31.7 °F 30.26 in Calm     96 % 0.00 in
06:53 32.7 °F 31.7 °F 30.26 in Calm     96 % 0.00 in
06:55 32.6 °F 31.6 °F 30.26 in Calm     96 % 0.00 in
07:00 32.5 °F 31.5 °F 30.26 in Calm     96 % 0.00 in
07:01 32.5 °F 31.5 °F 30.26 in Calm     96 % 0.00 in
07:06 32.3 °F 31.3 °F 30.25 in Calm     96 % 0.00 in
07:11 32.2 °F 31.2 °F 30.26 in Calm     96 % 0.00 in
07:13 32.1 °F 31.1 °F 30.26 in Calm     96 % 0.00 in
07:18 32.3 °F 31.3 °F 30.26 in Calm     96 % 0.00 in
07:20 32.5 °F 31.5 °F 30.26 in Calm     96 % 0.00 in
07:21 32.5 °F 31.5 °F 30.26 in Calm     96 % 0.00 in
07:26 32.5 °F 31.5 °F 30.27 in Calm     96 % 0.00 in
07:27 32.5 °F 31.5 °F 30.27 in Calm     96 % 0.00 in
07:28 32.5 °F 31.5 °F 30.27 in Calm     96 % 0.00 in
07:33 32.6 °F 31.6 °F 30.27 in Calm     96 % 0.00 in
07:35 32.6 °F 31.6 °F 30.27 in Calm     96 % 0.00 in
07:40 32.8 °F 31.8 °F 30.27 in Calm     96 % 0.00 in
07:41 32.9 °F 31.9 °F 30.27 in Calm     96 % 0.00 in
07:46 33.2 °F 32.2 °F 30.27 in Calm     96 % 0.00 in
07:47 33.3 °F 32.3 °F 30.27 in Calm     96 % 0.00 in
07:52 33.8 °F 32.8 °F 30.27 in Calm     96 % 0.00 in
07:53 33.8 °F 32.8 °F 30.27 in Calm     96 % 0.00 in
07:55 33.9 °F 32.9 °F 30.28 in Calm     96 % 0.00 in
08:00 34.4 °F 33.4 °F 30.28 in Calm     96 % 0.00 in
08:01 34.5 °F 33.5 °F 30.28 in Calm     96 % 0.00 in
08:06 36.0 °F 35.2 °F 30.27 in Calm     97 % 0.00 in
08:07 36.3 °F 35.5 °F 30.27 in Calm     97 % 0.00 in
08:09 36.8 °F 36.0 °F 30.27 in Calm     97 % 0.00 in
08:14 38.1 °F 37.3 °F 30.28 in Calm     97 % 0.00 in
08:19 39.4 °F 38.6 °F 30.28 in Calm     97 % 0.00 in
08:20 39.5 °F 38.7 °F 30.28 in Calm     97 % 0.00 in
08:23 39.8 °F 39.0 °F 30.28 in Calm     97 % 0.00 in
08:26 40.3 °F 39.5 °F 30.28 in Calm     97 % 0.00 in
08:29 40.8 °F 40.0 °F 30.28 in Calm     97 % 0.00 in
08:32 41.1 °F 40.3 °F 30.28 in Calm     97 % 0.00 in
08:37 41.2 °F 40.1 °F 30.29 in Calm     96 % 0.00 in
08:39 41.4 °F 40.1 °F 30.29 in Calm     95 % 0.00 in
08:40 41.6 °F 40.3 °F 30.28 in SSE 1.2 mph 1.2 mph 95 % 0.00 in
08:45 42.0 °F 39.6 °F 30.28 in Calm     91 % 0.00 in
08:50 42.5 °F 39.8 °F 30.28 in ESE 2.3 mph 2.3 mph 90 % 0.00 in
08:51 42.5 °F 39.8 °F 30.28 in ESE 1.2 mph   90 % 0.00 in
08:52 42.4 °F 39.7 °F 30.28 in ESE 1.2 mph   90 % 0.00 in
08:57 42.6 °F 39.6 °F 30.28 in SE 2.3 mph 2.3 mph 89 % 0.00 in
08:59 42.7 °F 39.7 °F 30.29 in SE 1.2 mph 1.2 mph 89 % 0.00 in
09:02 42.9 °F 39.6 °F 30.29 in SSE 4.6 mph 4.6 mph 88 % 0.00 in
09:05 43.2 °F 39.9 °F 30.29 in South 1.2 mph 1.2 mph 88 % 0.00 in
09:09 43.5 °F 40.2 °F 30.29 in SSE 2.3 mph 2.3 mph 88 % 0.00 in
09:10 43.7 °F 40.4 °F 30.29 in SSW 1.2 mph 1.2 mph 88 % 0.00 in
09:15 44.2 °F 40.6 °F 30.29 in South 2.3 mph   87 % 0.00 in
09:17 44.3 °F 40.7 °F 30.29 in SSW 2.3 mph 2.3 mph 87 % 0.00 in
09:22 44.8 °F 40.9 °F 30.30 in East 1.2 mph 1.2 mph 86 % 0.00 in
09:23 44.9 °F 41.0 °F 30.30 in Calm     86 % 0.00 in
09:28 45.5 °F 40.6 °F 30.30 in South 3.5 mph 3.5 mph 83 % 0.00 in
09:30 45.6 °F 40.7 °F 30.30 in South 2.3 mph 2.3 mph 83 % 0.00 in
09:33 45.9 °F 40.7 °F 30.30 in SSE 2.3 mph 2.3 mph 82 % 0.00 in
09:35 46.3 °F 41.1 °F 30.30 in SSE 1.2 mph 1.2 mph 82 % 0.00 in
09:40 46.7 °F 41.2 °F 30.30 in SSW 2.3 mph 2.3 mph 81 % 0.00 in
09:43 46.8 °F 41.0 °F 30.30 in NNE 1.2 mph 1.2 mph 80 % 0.00 in
09:48 47.1 °F 41.2 °F 30.30 in East 2.3 mph 2.3 mph 80 % 0.00 in
09:51 47.2 °F 40.7 °F 30.30 in East 3.5 mph 3.5 mph 78 % 0.00 in
09:56 47.5 °F 40.6 °F 30.30 in SSW 4.0 mph 4.0 mph 77 % 0.00 in
10:01 47.6 °F 40.7 °F 30.30 in SSE 3.5 mph 3.5 mph 77 % 0.00 in
10:02 47.7 °F 41.2 °F 30.30 in SE 2.3 mph 2.3 mph 78 % 0.00 in
10:07 48.0 °F 41.1 °F 30.30 in SSW 3.5 mph 3.5 mph 77 % 0.00 in
10:08 48.1 °F 41.2 °F 30.30 in South 1.2 mph 1.2 mph 77 % 0.00 in
10:10 48.3 °F 41.4 °F 30.30 in SE 2.3 mph 2.3 mph 77 % 0.00 in
10:15 48.4 °F 40.8 °F 30.30 in SW 5.0 mph 5.0 mph 75 % 0.00 in
10:19 48.5 °F 40.2 °F 30.31 in SSE 2.0 mph 2.0 mph 73 % 0.00 in
10:23 48.7 °F 39.7 °F 30.30 in ENE 3.5 mph 3.5 mph 71 % 0.00 in
10:28 48.9 °F 40.3 °F 30.30 in NE 3.5 mph 3.5 mph 72 % 0.00 in
10:29 48.9 °F 39.9 °F 30.30 in East 3.5 mph 3.5 mph 71 % 0.00 in
10:31 48.9 °F 39.5 °F 30.30 in SSE 2.3 mph 2.3 mph 70 % 0.00 in
10:36 49.1 °F 40.5 °F 30.30 in SE 1.2 mph 1.2 mph 72 % 0.00 in
10:37 49.1 °F 40.5 °F 30.30 in SSE 2.3 mph 2.3 mph 72 % 0.00 in
10:42 48.9 °F 39.2 °F 30.30 in WNW 3.5 mph 3.5 mph 69 % 0.00 in
10:45 48.6 °F 39.3 °F 30.30 in WNW 3.5 mph 3.5 mph 70 % 0.00 in
10:50 48.3 °F 39.7 °F 30.30 in Calm     72 % 0.00 in
10:55 48.7 °F 39.7 °F 30.30 in Calm     71 % 0.00 in
10:59 49.0 °F 40.4 °F 30.29 in NNW 1.2 mph 1.2 mph 72 % 0.00 in
11:01 49.2 °F 40.2 °F 30.30 in South 2.3 mph 2.3 mph 71 % 0.00 in
11:04 49.5 °F 40.5 °F 30.30 in SSW 3.5 mph 3.5 mph 71 % 0.00 in
11:07 49.3 °F 39.6 °F 30.30 in NW 3.5 mph 3.5 mph 69 % 0.00 in
11:09 49.4 °F 40.0 °F 30.29 in NNW 1.2 mph 1.2 mph 70 % 0.00 in
11:14 49.7 °F 39.9 °F 30.29 in West 1.2 mph 1.2 mph 69 % 0.00 in
11:15 49.6 °F 39.5 °F 30.29 in NW 1.2 mph 1.2 mph 68 % 0.00 in
11:16 49.6 °F 39.5 °F 30.29 in WNW 3.5 mph 3.5 mph 68 % 0.00 in
11:21 49.3 °F 39.9 °F 30.29 in SSE 3.5 mph 3.5 mph 70 % 0.00 in
11:22 49.4 °F 40.0 °F 30.29 in SE 1.2 mph   70 % 0.00 in
11:25 49.5 °F 39.4 °F 30.29 in NE 3.5 mph 3.5 mph 68 % 0.00 in
11:30 49.6 °F 39.5 °F 30.28 in East 1.2 mph 1.2 mph 68 % 0.00 in
11:35 50.3 °F 39.8 °F 30.28 in SE 4.0 mph 4.0 mph 67 % 0.00 in
11:36 50.4 °F 39.9 °F 30.28 in SSE 3.5 mph 3.5 mph 67 % 0.00 in
11:41 50.9 °F 39.5 °F 30.28 in East 1.2 mph 1.2 mph 65 % 0.00 in
11:46 51.5 °F 39.3 °F 30.28 in South 5.0 mph 5.0 mph 63 % 0.00 in
11:48 51.7 °F 38.7 °F 30.28 in NE 3.5 mph 3.5 mph 61 % 0.00 in
11:53 51.6 °F 38.6 °F 30.27 in NE 4.6 mph 4.6 mph 61 % 0.00 in
11:54 51.6 °F 39.0 °F 30.27 in South 3.5 mph 3.5 mph 62 % 0.00 in
11:59 51.8 °F 38.3 °F 30.27 in East 5.8 mph 5.8 mph 60 % 0.00 in
12:01 51.8 °F 38.8 °F 30.27 in NE 3.5 mph 3.5 mph 61 % 0.00 in
12:04 51.8 °F 38.3 °F 30.27 in SE 3.5 mph 3.5 mph 60 % 0.00 in
12:10 51.8 °F 37.5 °F 30.27 in SW 8.1 mph 8.1 mph 58 % 0.00 in
12:14 51.9 °F 38.0 °F 30.27 in SSW 10.4 mph 10.4 mph 59 % 0.00 in
12:19 52.0 °F 37.7 °F 30.26 in SSW 5.8 mph 5.8 mph 58 % 0.00 in
12:23 52.0 °F 37.7 °F 30.26 in SSE 5.8 mph 5.8 mph 58 % 0.00 in
12:24 52.0 °F 37.7 °F 30.26 in South 4.6 mph 4.6 mph 58 % 0.00 in
12:29 52.4 °F 38.0 °F 30.26 in SSE 5.0 mph 5.0 mph 58 % 0.00 in
12:30 52.4 °F 38.0 °F 30.26 in SSE 5.0 mph 5.0 mph 58 % 0.00 in
12:35 52.4 °F 38.0 °F 30.26 in NE 2.3 mph 2.3 mph 58 % 0.00 in
12:38 52.7 °F 38.8 °F 30.26 in SSE 3.5 mph 3.5 mph 59 % 0.00 in
12:43 52.8 °F 38.4 °F 30.26 in SE 3.0 mph 3.0 mph 58 % 0.00 in
12:45 52.8 °F 38.4 °F 30.26 in ENE 3.5 mph 3.5 mph 58 % 0.00 in
12:46 52.8 °F 38.9 °F 30.27 in SE 6.9 mph 6.9 mph 59 % 0.00 in
12:51 52.7 °F 37.9 °F 30.27 in SSE 4.6 mph 4.6 mph 57 % 0.00 in
12:52 52.7 °F 38.3 °F 30.26 in SE 6.0 mph 6.0 mph 58 % 0.00 in
12:57 53.0 °F 38.6 °F 30.27 in East 3.5 mph 3.5 mph 58 % 0.00 in
13:00 53.2 °F 38.8 °F 30.27 in ESE 3.0 mph 3.0 mph 58 % 0.00 in
13:05 53.2 °F 38.4 °F 30.27 in SSW 3.5 mph 3.5 mph 57 % 0.00 in
13:07 53.1 °F 38.3 °F 30.26 in ENE 3.5 mph 3.5 mph 57 % 0.00 in
13:12 53.5 °F 38.2 °F 30.27 in NE 3.5 mph 3.5 mph 56 % 0.00 in
13:13 53.5 °F 37.7 °F 30.26 in NE 3.5 mph 3.5 mph 55 % 0.00 in
13:18 54.0 °F 39.1 °F 30.27 in SSW 2.0 mph 2.0 mph 57 % 0.00 in
13:21 54.2 °F 38.8 °F 30.26 in SSW 2.3 mph 2.3 mph 56 % 0.00 in
13:25 54.1 °F 38.3 °F 30.26 in SSE 5.8 mph 5.8 mph 55 % 0.00 in
13:30 54.1 °F 38.3 °F 30.26 in ESE 5.8 mph 5.8 mph 55 % 0.00 in
13:35 54.0 °F 38.2 °F 30.27 in SSE 3.5 mph 3.5 mph 55 % 0.00 in
13:36 54.0 °F 37.7 °F 30.26 in NNW 3.5 mph 3.5 mph 54 % 0.00 in
13:38 54.0 °F 37.7 °F 30.26 in WSW 2.3 mph 2.3 mph 54 % 0.00 in
13:43 54.1 °F 37.8 °F 30.26 in South 2.3 mph 2.3 mph 54 % 0.00 in
13:48 54.2 °F 37.4 °F 30.26 in North 4.0 mph 4.0 mph 53 % 0.00 in
13:52 54.2 °F 37.4 °F 30.26 in South 2.3 mph 2.3 mph 53 % 0.00 in
13:58 54.2 °F 36.9 °F 30.26 in ESE 5.8 mph 5.8 mph 52 % 0.00 in
13:59 54.2 °F 36.9 °F 30.26 in SE 3.5 mph 3.5 mph 52 % 0.00 in
14:04 54.3 °F 36.5 °F 30.25 in ENE 3.5 mph 3.5 mph 51 % 0.00 in
14:06 54.1 °F 36.4 °F 30.25 in ENE 3.5 mph 3.5 mph 51 % 0.00 in
14:10 54.0 °F 36.8 °F 30.25 in ESE 2.3 mph 2.3 mph 52 % 0.00 in
14:15 54.3 °F 37.0 °F 30.25 in SE 3.0 mph 3.0 mph 52 % 0.00 in
14:16 54.3 °F 37.0 °F 30.25 in SE 4.0 mph 4.0 mph 52 % 0.00 in
14:18 54.3 °F 36.0 °F 30.25 in SE 3.5 mph 3.5 mph 50 % 0.00 in
14:23 54.1 °F 36.4 °F 30.25 in ESE 2.3 mph 2.3 mph 51 % 0.00 in
14:24 54.1 °F 36.4 °F 30.25 in SE 3.0 mph 3.0 mph 51 % 0.00 in
14:29 54.0 °F 36.3 °F 30.25 in South 5.8 mph 5.8 mph 51 % 0.00 in
14:34 54.0 °F 36.3 °F 30.25 in SE 5.8 mph 5.8 mph 51 % 0.00 in
14:39 53.9 °F 36.7 °F 30.25 in SSE 2.3 mph 2.3 mph 52 % 0.00 in
14:40 53.9 °F 36.2 °F 30.25 in ESE 3.5 mph 3.5 mph 51 % 0.00 in
14:45 53.8 °F 35.6 °F 30.25 in SSW 3.5 mph 3.5 mph 50 % 0.00 in
14:46 53.8 °F 35.6 °F 30.25 in South 3.5 mph 3.5 mph 50 % 0.00 in
14:51 53.6 °F 35.4 °F 30.25 in SSE 2.0 mph 2.0 mph 50 % 0.00 in
14:53 53.6 °F 35.9 °F 30.25 in ESE 2.3 mph 2.3 mph 51 % 0.00 in
14:58 53.5 °F 36.3 °F 30.25 in SSE 1.2 mph 1.2 mph 52 % 0.00 in
15:01 53.3 °F 36.1 °F 30.25 in SW 3.5 mph 3.5 mph 52 % 0.00 in
15:03 53.2 °F 36.0 °F 30.25 in South 3.5 mph 3.5 mph 52 % 0.00 in
15:04 53.2 °F 36.0 °F 30.25 in SSW 3.5 mph 3.5 mph 52 % 0.00 in
15:09 53.0 °F 35.8 °F 30.25 in SSW 5.8 mph 5.8 mph 52 % 0.00 in
15:10 53.0 °F 35.8 °F 30.25 in NNW 2.3 mph 2.3 mph 52 % 0.00 in
15:15 52.9 °F 35.7 °F 30.25 in SSE 1.2 mph 1.2 mph 52 % 0.00 in
15:17 52.8 °F 36.1 °F 30.25 in NNW 1.2 mph   53 % 0.00 in
15:19 52.8 °F 36.1 °F 30.25 in North 3.5 mph 3.5 mph 53 % 0.00 in
15:24 52.8 °F 36.1 °F 30.25 in SSE 3.5 mph 3.5 mph 53 % 0.00 in
15:25 52.7 °F 36.0 °F 30.25 in SSE 3.5 mph 3.5 mph 53 % 0.00 in
15:30 52.6 °F 37.3 °F 30.25 in Calm     56 % 0.00 in
15:35 52.3 °F 37.1 °F 30.25 in NW 1.0 mph 1.0 mph 56 % 0.00 in
15:38 52.2 °F 37.4 °F 30.25 in Calm     57 % 0.00 in
15:43 52.0 °F 37.7 °F 30.25 in Calm     58 % 0.00 in
15:47 51.9 °F 37.6 °F 30.24 in SE 2.3 mph 2.3 mph 58 % 0.00 in
15:51 51.7 °F 37.4 °F 30.24 in Calm   0.1 mph 58 % 0.00 in
15:56 51.5 °F 37.6 °F 30.24 in Calm     59 % 0.00 in
16:01 51.3 °F 37.9 °F 30.25 in Calm     60 % 0.00 in
16:02 51.3 °F 37.9 °F 30.25 in South 1.0 mph 1.0 mph 60 % 0.00 in
16:07 51.0 °F 37.6 °F 30.25 in South 2.3 mph 2.3 mph 60 % 0.00 in
16:12 50.7 °F 37.7 °F 30.25 in Calm     61 % 0.00 in
16:14 50.6 °F 37.6 °F 30.25 in NNW 1.2 mph 1.2 mph 61 % 0.00 in
16:19 50.3 °F 38.2 °F 30.25 in Calm     63 % 0.00 in
16:25 49.9 °F 37.8 °F 30.25 in NW 1.2 mph   63 % 0.00 in
16:29 49.6 °F 37.9 °F 30.26 in NNW 1.2 mph   64 % 0.00 in
16:30 49.5 °F 37.8 °F 30.26 in Calm     64 % 0.00 in
16:35 49.1 °F 37.8 °F 30.26 in Calm     65 % 0.00 in
16:36 49.1 °F 37.8 °F 30.26 in Calm     65 % 0.00 in
16:37 49.0 °F 37.7 °F 30.26 in Calm     65 % 0.00 in
16:42 48.7 °F 37.8 °F 30.26 in Calm     66 % 0.00 in
16:47 48.3 °F 37.8 °F 30.26 in Calm     67 % 0.00 in
16:51 47.9 °F 37.5 °F 30.27 in Calm     67 % 0.00 in
16:56 47.4 °F 37.4 °F 30.27 in Calm     68 % 0.00 in
17:00 47.0 °F 37.4 °F 30.27 in Calm     69 % 0.00 in
17:03 46.7 °F 37.4 °F 30.27 in Calm     70 % 0.00 in
17:06 46.3 °F 37.0 °F 30.28 in Calm     70 % 0.00 in
17:11 45.6 °F 36.7 °F 30.28 in Calm     71 % 0.00 in
17:12 45.5 °F 37.0 °F 30.28 in Calm     72 % 0.00 in
17:13 45.3 °F 36.8 °F 30.28 in Calm     72 % 0.00 in
17:18 44.8 °F 37.0 °F 30.28 in Calm     74 % 0.00 in
17:23 44.3 °F 36.9 °F 30.28 in Calm     75 % 0.00 in
17:25 44.2 °F 36.8 °F 30.28 in Calm     75 % 0.00 in
17:30 43.7 °F 36.6 °F 30.28 in Calm     76 % 0.00 in
17:34 43.4 °F 36.7 °F 30.28 in Calm     77 % 0.00 in
17:35 43.4 °F 37.0 °F 30.27 in Calm     78 % 0.00 in
17:40 43.1 °F 36.7 °F 30.27 in Calm     78 % 0.00 in
17:44 42.9 °F 36.8 °F 30.27 in Calm     79 % 0.00 in
17:49 42.5 °F 36.4 °F 30.27 in Calm     79 % 0.00 in
17:54 42.1 °F 36.4 °F 30.27 in Calm     80 % 0.00 in
17:55 42.1 °F 36.4 °F 30.27 in Calm     80 % 0.00 in
18:00 42.0 °F 36.3 °F 30.27 in Calm     80 % 0.00 in
18:05 41.7 °F 36.3 °F 30.27 in Calm     81 % 0.00 in
18:07 41.6 °F 36.2 °F 30.26 in Calm     81 % 0.00 in
18:12 41.5 °F 36.4 °F 30.26 in Calm     82 % 0.00 in
18:17 41.2 °F 36.1 °F 30.26 in Calm     82 % 0.00 in
18:25 40.5 °F 35.7 °F 30.26 in Calm     83 % 0.00 in
18:29 40.3 °F 35.8 °F 30.26 in Calm     84 % 0.00 in
18:30 40.3 °F 35.8 °F 30.26 in Calm     84 % 0.00 in
18:35 40.1 °F 36.0 °F 30.27 in Calm     85 % 0.00 in
18:38 40.0 °F 35.9 °F 30.26 in Calm     85 % 0.00 in
18:43 39.9 °F 36.1 °F 30.27 in Calm     86 % 0.00 in
18:46 39.8 °F 35.7 °F 30.27 in Calm     85 % 0.00 in
18:50 39.7 °F 35.6 °F 30.27 in Calm     85 % 0.00 in
18:52 39.7 °F 35.9 °F 30.27 in Calm     86 % 0.00 in
18:56 39.6 °F 35.8 °F 30.27 in Calm     86 % 0.00 in
18:57 39.6 °F 35.8 °F 30.27 in Calm     86 % 0.00 in
19:02 39.4 °F 35.3 °F 30.27 in Calm     85 % 0.00 in
19:03 39.4 °F 35.3 °F 30.27 in Calm     85 % 0.00 in
19:06 39.2 °F 35.1 °F 30.27 in Calm     85 % 0.00 in
19:12 38.8 °F 35.0 °F 30.27 in Calm     86 % 0.00 in
19:15 38.8 °F 35.3 °F 30.28 in Calm     87 % 0.00 in
19:20 38.6 °F 35.1 °F 30.28 in Calm     87 % 0.00 in
19:21 38.5 °F 35.0 °F 30.28 in Calm     87 % 0.00 in
19:23 38.4 °F 34.9 °F 30.28 in Calm     87 % 0.00 in
19:28 38.3 °F 35.1 °F 30.28 in Calm     88 % 0.00 in
19:30 38.3 °F 35.1 °F 30.28 in Calm     88 % 0.00 in
19:35 38.3 °F 35.1 °F 30.29 in Calm     88 % 0.00 in
19:37 38.3 °F 35.1 °F 30.29 in Calm     88 % 0.00 in
19:42 38.1 °F 34.9 °F 30.30 in Calm     88 % 0.00 in
19:43 38.1 °F 34.9 °F 30.29 in Calm     88 % 0.00 in
19:48 38.0 °F 34.8 °F 30.30 in Calm     88 % 0.00 in
19:49 38.0 °F 34.8 °F 30.30 in Calm     88 % 0.00 in
19:54 37.7 °F 34.5 °F 30.30 in Calm     88 % 0.00 in
19:58 37.3 °F 34.1 °F 30.30 in Calm     88 % 0.00 in
20:03 37.2 °F 34.3 °F 30.31 in Calm     89 % 0.00 in
20:05 37.1 °F 34.2 °F 30.31 in Calm     89 % 0.00 in
20:06 37.1 °F 34.2 °F 30.31 in Calm     89 % 0.00 in
20:13 37.0 °F 34.1 °F 30.32 in Calm     89 % 0.00 in
20:18 36.4 °F 33.2 °F 30.32 in Calm     88 % 0.00 in
20:20 36.3 °F 33.4 °F 30.32 in Calm     89 % 0.00 in
20:23 36.3 °F 33.6 °F 30.33 in Calm     90 % 0.00 in
20:28 36.4 °F 33.7 °F 30.33 in Calm     90 % 0.00 in
20:30 36.4 °F 33.7 °F 30.33 in Calm     90 % 0.00 in
20:32 36.5 °F 33.8 °F 30.33 in Calm     90 % 0.00 in
20:36 36.5 °F 33.8 °F 30.33 in Calm     90 % 0.00 in
20:41 36.3 °F 33.4 °F 30.33 in Calm     89 % 0.00 in
20:45 35.9 °F 33.0 °F 30.33 in Calm     89 % 0.00 in
20:46 35.8 °F 32.9 °F 30.33 in Calm     89 % 0.00 in
20:52 35.5 °F 32.6 °F 30.33 in Calm     89 % 0.00 in
20:57 35.4 °F 32.8 °F 30.33 in Calm     90 % 0.00 in
20:58 35.4 °F 32.8 °F 30.33 in Calm     90 % 0.00 in
21:03 35.5 °F 33.1 °F 30.33 in Calm     91 % 0.00 in
21:04 35.4 °F 33.0 °F 30.33 in Calm     91 % 0.00 in
21:05 35.4 °F 33.0 °F 30.33 in Calm     91 % 0.00 in
21:10 35.3 °F 32.9 °F 30.34 in Calm     91 % 0.00 in
21:12 35.3 °F 32.9 °F 30.34 in Calm     91 % 0.00 in
21:16 35.1 °F 32.7 °F 30.34 in SW 1.0 mph 1.0 mph 91 % 0.00 in
21:20 34.7 °F 32.1 °F 30.34 in Calm     90 % 0.00 in
21:25 34.2 °F 31.6 °F 30.34 in Calm     90 % 0.00 in
21:26 34.2 °F 31.6 °F 30.34 in Calm     90 % 0.00 in
21:31 34.0 °F 31.6 °F 30.34 in Calm     91 % 0.00 in
21:36 33.9 °F 31.6 °F 30.34 in Calm     91 % 0.00 in
21:37 33.8 °F 31.5 °F 30.33 in Calm     91 % 0.00 in
21:42 33.7 °F 31.4 °F 30.33 in Calm     91 % 0.00 in
21:43 33.6 °F 31.3 °F 30.33 in Calm     91 % 0.00 in
21:48 33.5 °F 31.2 °F 30.33 in Calm     91 % 0.00 in
21:53 33.8 °F 31.7 °F 30.33 in Calm     92 % 0.00 in
21:54 33.9 °F 31.8 °F 30.33 in Calm     92 % 0.00 in
21:59 34.1 °F 32.0 °F 30.33 in Calm     92 % 0.00 in
22:00 34.2 °F 32.1 °F 30.33 in Calm     92 % 0.00 in
22:02 34.2 °F 32.1 °F 30.33 in Calm     92 % 0.00 in
22:07 34.1 °F 31.7 °F 30.32 in Calm     91 % 0.00 in
22:12 34.0 °F 31.6 °F 30.32 in Calm     91 % 0.00 in
22:15 33.9 °F 31.6 °F 30.33 in Calm     91 % 0.00 in
22:21 33.8 °F 31.7 °F 30.33 in Calm     92 % 0.00 in
22:26 33.9 °F 31.8 °F 30.32 in Calm     92 % 0.00 in
22:27 33.9 °F 31.8 °F 30.32 in Calm     92 % 0.00 in
22:28 33.8 °F 31.7 °F 30.32 in Calm     92 % 0.00 in
22:33 33.9 °F 31.8 °F 30.32 in Calm     92 % 0.00 in
22:34 33.9 °F 31.8 °F 30.32 in Calm     92 % 0.00 in
22:35 34.0 °F 31.9 °F 30.32 in Calm     92 % 0.00 in
22:44 34.3 °F 32.5 °F 30.31 in Calm     93 % 0.00 in
22:46 34.3 °F 32.5 °F 30.31 in Calm     93 % 0.00 in
22:48 34.3 °F 32.5 °F 30.31 in Calm     93 % 0.00 in
22:55 34.0 °F 31.9 °F 30.31 in Calm     92 % 0.00 in
22:59 33.9 °F 31.8 °F 30.31 in Calm     92 % 0.00 in
23:03 33.8 °F 31.7 °F 30.31 in Calm     92 % 0.00 in
23:08 33.7 °F 31.6 °F 30.31 in Calm     92 % 0.00 in
23:12 33.5 °F 31.4 °F 30.32 in Calm     92 % 0.00 in
23:17 33.5 °F 31.7 °F 30.32 in Calm     93 % 0.00 in
23:22 33.3 °F 31.5 °F 30.32 in Calm     93 % 0.00 in
23:24 33.4 °F 31.6 °F 30.31 in Calm     93 % 0.00 in
23:26 33.5 °F 31.7 °F 30.32 in SW 1.2 mph   93 % 0.00 in
23:31 33.7 °F 31.9 °F 30.32 in Calm     93 % 0.00 in
23:32 33.7 °F 31.9 °F 30.32 in Calm     93 % 0.00 in
23:37 33.6 °F 31.8 °F 30.32 in Calm     93 % 0.00 in
23:42 33.5 °F 31.7 °F 30.32 in Calm     93 % 0.00 in
23:45 33.4 °F 31.6 °F 30.32 in Calm     93 % 0.00 in
23:47 33.2 °F 31.1 °F 30.32 in Calm     92 % 0.00 in
23:50 33.0 °F 30.9 °F 30.33 in Calm     92 % 0.00 in
23:52 32.8 °F 30.7 °F 30.33 in Calm     92 % 0.00 in
23:57 32.7 °F 30.6 °F 30.33 in Calm     92 % 0.00 in
Park Place, Exeter, Tulare County, California, USA
Compliments of Weather Underground - 3.5 mb